Time;durP1;ratioP1;P1;durP2;ratioP2;P2;SDS_P1;SDS_P2;PMS_P1;PMS_P2;Temp;Humidity;BMP_temperature;BMP_pressure;BME280_temperature;BME280_humidity;BME280_pressure;Samples;Min_cycle;Max_cycle;Signal;HPM_P1;HPM_P2
2022/06/20 00:00:14;;;;;;;10.65;2.13;;;14.10;99.90;;;;;;5052491;28;20086;-79
2022/06/20 00:02:55;;;;;;;5.93;1.98;;;14.00;99.90;;;;;;5052365;28;20041;-78
2022/06/20 00:05:27;;;;;;;9.73;2.10;;;14.10;99.90;;;;;;5032155;28;20577;-78
2022/06/20 00:07:53;;;;;;;7.47;1.95;;;14.00;99.90;;;;;;5053263;28;20091;-79
2022/06/20 00:10:22;;;;;;;5.50;2.00;;;14.00;99.90;;;;;;5052106;28;20044;-78
2022/06/20 00:12:48;;;;;;;8.15;1.90;;;13.90;99.90;;;;;;5052637;28;20441;-78
2022/06/20 00:15:25;;;;;;;7.07;1.90;;;14.00;99.90;;;;;;5051724;28;20033;-78
2022/06/20 00:17:51;;;;;;;7.10;2.20;;;13.90;99.90;;;;;;5052094;28;20041;-78
2022/06/20 00:20:17;;;;;;;6.07;1.90;;;13.90;99.90;;;;;;5053100;28;20041;-78
2022/06/20 00:22:43;;;;;;;6.35;2.08;;;14.00;99.90;;;;;;5052248;28;20037;-79
2022/06/20 00:25:08;;;;;;;5.95;1.90;;;13.90;99.90;;;;;;5052307;28;20037;-78
2022/06/20 00:27:34;;;;;;;6.22;1.83;;;13.90;99.90;;;;;;5052596;28;20049;-79
2022/06/20 00:30:00;;;;;;;7.53;2.53;;;13.90;99.90;;;;;;5053204;28;20410;-79
2022/06/20 00:32:26;;;;;;;6.97;1.95;;;13.90;99.90;;;;;;5052179;28;20124;-78
2022/06/20 00:34:51;;;;;;;5.18;1.88;;;13.90;99.90;;;;;;5052450;28;20068;-78
2022/06/20 00:37:20;;;;;;;7.88;2.15;;;13.90;99.90;;;;;;5053673;28;20083;-78
2022/06/20 00:39:48;;;;;;;5.60;1.90;;;14.00;99.90;;;;;;5056077;28;20047;-78
2022/06/20 00:42:14;;;;;;;6.53;2.17;;;13.90;99.90;;;;;;5055118;28;20037;-78
2022/06/20 00:44:44;;;;;;;8.27;2.10;;;14.00;99.90;;;;;;5054196;28;20123;-78
2022/06/20 00:47:14;;;;;;;4.63;1.70;;;14.00;99.90;;;;;;5056441;28;20041;-78
2022/06/20 00:49:49;;;;;;;7.78;2.20;;;14.00;99.90;;;;;;5056032;28;20044;-78
2022/06/20 00:52:39;;;;;;;5.03;1.83;;;14.00;99.90;;;;;;5055398;28;20033;-78
2022/06/20 00:55:11;;;;;;;4.43;1.88;;;13.90;99.90;;;;;;5055053;28;20043;-78
2022/06/20 00:57:57;;;;;;;7.30;2.28;;;13.90;99.90;;;;;;5055194;28;20037;-78
2022/06/20 01:00:27;;;;;;;5.55;1.85;;;13.80;99.90;;;;;;5055077;28;20079;-78
2022/06/20 01:03:13;;;;;;;8.20;1.85;;;13.80;99.90;;;;;;5056049;28;20084;-79
2022/06/20 01:05:51;;;;;;;6.80;1.60;;;13.70;99.90;;;;;;5053594;28;20045;-78
2022/06/20 01:08:30;;;;;;;6.20;1.83;;;13.70;99.90;;;;;;5056114;28;20051;-79
2022/06/20 01:11:03;;;;;;;8.73;2.00;;;13.60;99.90;;;;;;5055662;28;20533;-78
2022/06/20 01:13:29;;;;;;;7.15;1.85;;;13.60;99.90;;;;;;5055344;28;20049;-79
2022/06/20 01:16:04;;;;;;;8.88;1.80;;;13.50;99.90;;;;;;5055349;28;20048;-78
2022/06/20 01:18:33;;;;;;;5.05;1.80;;;13.40;99.90;;;;;;5054498;28;20043;-78
2022/06/20 01:21:01;;;;;;;10.20;1.92;;;13.30;99.90;;;;;;5053575;28;20075;-78
2022/06/20 01:24:05;;;;;;;8.73;2.10;;;13.30;99.90;;;;;;5055018;28;20040;-78
2022/06/20 01:26:35;;;;;;;7.65;1.75;;;13.30;99.90;;;;;;5054850;28;20036;-78
2022/06/20 01:29:06;;;;;;;8.18;2.15;;;13.10;99.90;;;;;;5054663;28;20390;-78
2022/06/20 01:31:37;;;;;;;5.22;1.90;;;13.00;99.90;;;;;;5055105;28;20044;-78
2022/06/20 01:34:03;;;;;;;7.88;1.90;;;13.00;99.90;;;;;;5053216;28;20410;-79
2022/06/20 01:39:18;;;;;;;5.40;1.63;;;13.00;99.90;;;;;;5054694;28;20037;-78
2022/06/20 01:44:37;;;;;;;6.40;1.80;;;12.70;99.90;;;;;;5053237;28;20056;-78
2022/06/20 01:47:03;;;;;;;7.18;1.80;;;12.70;99.90;;;;;;5052909;28;20600;-78
2022/06/20 01:49:30;;;;;;;7.18;1.67;;;12.60;99.90;;;;;;5053539;28;20036;-78
2022/06/20 01:52:01;;;;;;;4.95;1.77;;;12.60;99.90;;;;;;5054318;28;20494;-77
2022/06/20 01:54:31;;;;;;;6.47;1.67;;;12.70;99.90;;;;;;5053420;28;20059;-78
2022/06/20 01:56:57;;;;;;;7.43;1.98;;;12.60;99.90;;;;;;5054750;28;20375;-78
2022/06/20 02:00:09;;;;;;;9.73;1.90;;;12.60;99.90;;;;;;5054515;28;20039;-78
2022/06/20 02:02:40;;;;;;;9.48;2.42;;;12.50;99.90;;;;;;5054111;28;20041;-78
2022/06/20 02:05:10;;;;;;;5.38;1.70;;;12.50;99.90;;;;;;5052484;28;20044;-78
2022/06/20 02:07:36;;;;;;;5.63;1.70;;;12.50;99.90;;;;;;5053711;28;20048;-78
2022/06/20 02:10:06;;;;;;;4.75;1.73;;;12.50;99.90;;;;;;5053783;28;20041;-78
2022/06/20 02:12:36;;;;;;;9.75;1.95;;;12.50;99.90;;;;;;5053780;28;20238;-79
2022/06/20 02:15:04;;;;;;;4.22;1.73;;;12.40;99.90;;;;;;5053184;28;20123;-79
2022/06/20 02:17:41;;;;;;;7.07;1.67;;;12.30;99.90;;;;;;5053878;28;20040;-78
2022/06/20 02:20:12;;;;;;;6.75;2.05;;;12.30;99.90;;;;;;5053072;28;20372;-79
2022/06/20 02:22:40;;;;;;;6.97;1.80;;;12.30;99.90;;;;;;5053970;28;20120;-78
2022/06/20 02:25:11;;;;;;;4.72;1.70;;;12.30;99.90;;;;;;5054023;28;20041;-78
2022/06/20 02:27:40;;;;;;;8.30;2.00;;;12.40;99.90;;;;;;5053900;28;20395;-78
2022/06/20 02:30:08;;;;;;;10.07;2.78;;;12.40;99.90;;;;;;5054106;28;20044;-78
2022/06/20 02:32:38;;;;;;;3.08;1.50;;;12.40;99.90;;;;;;5053876;28;20084;-78
2022/06/20 02:35:07;;;;;;;9.75;1.85;;;12.50;99.90;;;;;;5053131;28;20037;-78
2022/06/20 02:37:34;;;;;;;6.28;1.80;;;12.50;99.90;;;;;;5052618;28;20037;-78
2022/06/20 02:40:04;;;;;;;7.38;1.90;;;12.50;99.90;;;;;;5052849;28;20483;-79
2022/06/20 02:42:44;;;;;;;6.72;1.60;;;12.50;99.90;;;;;;5053046;28;20044;-78
2022/06/20 02:45:11;;;;;;;8.45;1.90;;;12.50;99.90;;;;;;5051956;28;20499;-78
2022/06/20 02:47:43;;;;;;;6.70;1.33;;;12.50;99.90;;;;;;5053790;28;20434;-79
2022/06/20 02:50:12;;;;;;;8.57;1.77;;;12.50;99.90;;;;;;5053829;28;20120;-79
2022/06/20 02:52:52;;;;;;;6.57;1.70;;;12.50;99.90;;;;;;5051916;28;20033;-79
2022/06/20 02:55:18;;;;;;;8.45;2.85;;;12.50;99.90;;;;;;5052843;28;20036;-78
2022/06/20 02:57:58;;;;;;;3.58;1.80;;;12.40;99.90;;;;;;5054113;28;20033;-79
2022/06/20 03:01:02;;;;;;;6.03;1.75;;;12.50;99.90;;;;;;5053092;28;20033;-78
2022/06/20 03:03:38;;;;;;;5.50;1.67;;;12.50;99.90;;;;;;5031330;28;20461;-78
2022/06/20 03:06:05;;;;;;;4.53;1.65;;;12.40;99.90;;;;;;5052195;28;20102;-78
2022/06/20 03:08:32;;;;;;;6.00;1.85;;;12.40;99.90;;;;;;5053435;28;20036;-78
2022/06/20 03:11:04;;;;;;;9.98;1.90;;;12.40;99.90;;;;;;5053277;28;20040;-78
2022/06/20 03:13:30;;;;;;;8.02;1.88;;;12.40;99.90;;;;;;5053108;28;20041;-78
2022/06/20 03:15:56;;;;;;;6.35;1.80;;;12.30;99.90;;;;;;5052242;28;20033;-78
2022/06/20 03:18:23;;;;;;;4.25;1.63;;;12.30;99.90;;;;;;5052174;28;20090;-78
2022/06/20 03:20:49;;;;;;;5.22;1.85;;;12.30;99.90;;;;;;5052064;28;20041;-78
2022/06/20 03:23:23;;;;;;;8.23;1.90;;;12.30;99.90;;;;;;5053333;28;20086;-78
2022/06/20 03:25:51;;;;;;;7.03;2.00;;;12.30;99.90;;;;;;5053196;28;20056;-78
2022/06/20 03:28:20;;;;;;;9.55;1.92;;;12.20;99.90;;;;;;5053296;28;20032;-78
2022/06/20 03:30:46;;;;;;;9.98;2.10;;;12.20;99.90;;;;;;5053628;28;20072;-78
2022/06/20 03:33:14;;;;;;;6.63;2.20;;;12.00;99.90;;;;;;5053003;28;20051;-78
2022/06/20 03:36:03;;;;;;;6.47;1.90;;;12.00;99.90;;;;;;5052435;28;20067;-78
2022/06/20 03:38:30;;;;;;;8.95;2.10;;;11.80;99.90;;;;;;5052768;28;20079;-78
2022/06/20 03:40:55;;;;;;;7.15;2.05;;;11.80;99.90;;;;;;5051809;28;20383;-78
2022/06/20 03:43:25;;;;;;;5.18;2.30;;;11.80;99.90;;;;;;5052337;28;20132;-78
2022/06/20 03:46:01;;;;;;;6.57;2.22;;;11.80;99.90;;;;;;5051575;28;20055;-78
2022/06/20 03:48:36;;;;;;;5.60;2.03;;;11.90;99.90;;;;;;5052520;28;20091;-78
2022/06/20 03:51:17;;;;;;;6.68;2.20;;;11.90;99.90;;;;;;5052735;28;20089;-78
2022/06/20 03:54:01;;;;;;;4.68;1.80;;;11.90;99.90;;;;;;5052002;28;20037;-78
2022/06/20 03:56:34;;;;;;;5.80;2.13;;;11.90;99.90;;;;;;5052976;28;20395;-78
2022/06/20 03:59:08;;;;;;;9.85;2.38;;;11.90;99.90;;;;;;5052542;28;20037;-78
2022/06/20 04:01:37;;;;;;;;;;;12.00;99.90;;;;;;5052877;28;20402;-78
2022/06/20 04:04:38;;;;;;;6.07;2.00;;;12.10;99.90;;;;;;5052384;28;20008;-78
2022/06/20 04:07:12;;;;;;;6.10;2.33;;;12.10;99.90;;;;;;5018641;28;20049;-78
2022/06/20 04:13:02;;;;;;;9.18;2.80;;;12.10;99.90;;;;;;5054838;28;20077;-78
2022/06/20 04:15:39;;;;;;;7.45;2.45;;;12.10;99.90;;;;;;5055791;28;20403;-79
2022/06/20 04:18:27;;;;;;;7.47;2.20;;;12.20;99.90;;;;;;5055751;28;20328;-79
2022/06/20 04:21:07;;;;;;;9.38;2.50;;;12.20;99.90;;;;;;5055251;28;20078;-79
2022/06/20 04:23:56;;;;;;;8.25;2.60;;;12.30;99.90;;;;;;5056229;28;20072;-79
2022/06/20 04:26:35;;;;;;;10.38;2.80;;;12.30;99.90;;;;;;5056286;28;20052;-78
2022/06/20 04:29:13;;;;;;;7.18;2.63;;;12.40;99.90;;;;;;5056238;28;20041;-78
2022/06/20 04:31:50;;;;;;;8.18;2.80;;;12.40;99.90;;;;;;5055935;28;20402;-78
2022/06/20 04:34:30;;;;;;;10.30;2.60;;;12.50;99.90;;;;;;5054504;28;20056;-78
2022/06/20 04:37:04;;;;;;;10.73;2.85;;;12.50;99.90;;;;;;5055271;28;20033;-79
2022/06/20 04:39:40;;;;;;;;;;;12.50;99.90;;;;;;5055950;28;20037;-79
2022/06/20 04:42:20;;;;;;;10.20;2.58;;;12.60;99.90;;;;;;5054841;28;20397;-78
2022/06/20 04:44:54;;;;;;;10.52;2.83;;;12.70;99.90;;;;;;5053850;28;20446;-78
2022/06/20 04:47:57;;;;;;;8.05;2.85;;;12.80;99.90;;;;;;5055707;28;20071;-78
2022/06/20 04:50:29;;;;;;;9.30;2.72;;;12.80;99.90;;;;;;5015157;28;20110;-79
2022/06/20 04:52:59;;;;;;;5.40;2.65;;;12.80;99.90;;;;;;5055288;28;20033;-79
2022/06/20 04:55:27;;;;;;;12.27;3.22;;;12.80;99.90;;;;;;5054743;28;20064;-78
2022/06/20 04:57:57;;;;;;;10.95;2.80;;;12.70;99.90;;;;;;5054367;28;20037;-78
2022/06/20 05:00:35;;;;;;;12.73;3.15;;;12.70;99.90;;;;;;5055148;28;20059;-78
2022/06/20 05:03:01;;;;;;;9.60;3.45;;;12.70;99.90;;;;;;5055519;28;20135;-78
2022/06/20 05:05:30;;;;;;;6.05;3.05;;;12.80;99.90;;;;;;5054731;28;20072;-78
2022/06/20 05:07:56;;;;;;;8.45;3.28;;;12.90;99.90;;;;;;5054895;28;20037;-79
2022/06/20 05:10:46;;;;;;;8.93;3.17;;;13.00;99.90;;;;;;5054809;28;20514;-77
2022/06/20 05:13:38;;;;;;;8.52;2.90;;;13.10;99.90;;;;;;5055192;28;20049;-78
2022/06/20 05:16:09;;;;;;;10.88;3.30;;;13.20;99.90;;;;;;5054825;28;20072;-79
2022/06/20 05:18:42;;;;;;;8.05;3.30;;;13.40;99.90;;;;;;5055237;28;20037;-80
2022/06/20 05:21:12;;;;;;;8.77;3.08;;;13.50;99.90;;;;;;5054784;28;20055;-79
2022/06/20 05:23:40;;;;;;;8.68;3.10;;;13.50;99.90;;;;;;5051881;28;20041;-79
2022/06/20 05:26:08;;;;;;;10.65;3.30;;;13.60;99.90;;;;;;5054466;28;20403;-79
2022/06/20 05:28:37;;;;;;;10.73;3.60;;;13.70;99.90;;;;;;5052541;28;20040;-79
2022/06/20 05:31:06;;;;;;;10.73;3.53;;;13.70;99.90;;;;;;5053001;28;20124;-79
2022/06/20 05:33:43;;;;;;;11.80;3.90;;;13.70;99.90;;;;;;5052628;28;20092;-79
2022/06/20 05:36:14;;;;;;;11.32;3.85;;;13.80;99.90;;;;;;5053381;28;20045;-78
2022/06/20 05:38:58;;;;;;;12.95;3.40;;;13.90;99.90;;;;;;5054620;28;20033;-79
2022/06/20 05:41:23;;;;;;;13.43;3.95;;;14.00;99.90;;;;;;5054522;28;20045;-79
2022/06/20 05:43:49;;;;;;;10.50;3.22;;;14.00;99.90;;;;;;5053357;28;20063;-78
2022/06/20 05:46:35;;;;;;;11.02;4.22;;;14.10;99.90;;;;;;5053894;28;20045;-79
2022/06/20 05:49:07;;;;;;;13.25;4.00;;;14.10;99.90;;;;;;5053751;28;20537;-80
2022/06/20 05:51:36;;;;;;;11.32;3.70;;;14.20;99.90;;;;;;5053765;28;20037;-83
2022/06/20 05:54:10;;;;;;;11.88;3.58;;;14.30;99.90;;;;;;5051402;28;20462;-80
2022/06/20 05:56:42;;;;;;;10.60;3.13;;;14.30;99.90;;;;;;5053655;28;20037;-82
2022/06/20 05:59:25;;;;;;;11.70;3.70;;;14.40;99.90;;;;;;5053942;28;20037;-79
2022/06/20 06:01:52;;;;;;;13.02;3.45;;;14.50;99.90;;;;;;5053644;28;20043;-81
2022/06/20 06:04:29;;;;;;;8.70;3.20;;;14.50;99.90;;;;;;5053044;28;20051;-81
2022/06/20 06:07:13;;;;;;;12.75;3.78;;;14.70;99.90;;;;;;5053968;28;20033;-80
2022/06/20 06:09:45;;;;;;;10.95;3.28;;;14.70;99.90;;;;;;5049778;28;20112;-80
2022/06/20 06:12:18;;;;;;;14.13;3.25;;;14.80;99.90;;;;;;5051565;28;20048;-79
2022/06/20 06:14:49;;;;;;;12.50;3.17;;;14.80;99.90;;;;;;5052405;28;20114;-78
2022/06/20 06:17:28;;;;;;;16.27;3.60;;;15.00;99.90;;;;;;5051996;28;20136;-83
2022/06/20 06:20:01;;;;;;;11.88;3.35;;;15.00;99.90;;;;;;5052647;28;20037;-81
2022/06/20 06:22:35;;;;;;;9.80;3.15;;;15.00;99.90;;;;;;5052183;28;20410;-83
2022/06/20 06:25:08;;;;;;;13.45;3.85;;;15.10;99.90;;;;;;5051987;28;20380;-79
2022/06/20 06:27:36;;;;;;;13.80;2.90;;;15.20;99.90;;;;;;5052735;28;20044;-81
2022/06/20 06:30:05;;;;;;;13.90;3.42;;;15.20;99.90;;;;;;5052631;28;20063;-83
2022/06/20 06:32:43;;;;;;;8.02;3.60;;;15.30;99.90;;;;;;5052987;28;20124;-78
2022/06/20 06:35:11;;;;;;;11.10;3.10;;;15.40;99.90;;;;;;5052047;28;20550;-81
2022/06/20 06:37:44;;;;;;;10.68;3.20;;;15.40;99.90;;;;;;5052281;28;20039;-83
2022/06/20 06:40:23;;;;;;;10.60;3.80;;;15.50;99.90;;;;;;5052145;28;20024;-83
2022/06/20 06:42:50;;;;;;;7.65;3.08;;;15.40;99.90;;;;;;5053340;28;20320;-80
2022/06/20 06:45:24;;;;;;;8.32;2.80;;;15.40;99.90;;;;;;5051819;28;20044;-81
2022/06/20 06:47:57;;;;;;;12.35;3.65;;;15.40;99.90;;;;;;5051845;28;20494;-80
2022/06/20 06:50:33;;;;;;;11.17;3.10;;;15.30;99.90;;;;;;5050913;28;20049;-80
2022/06/20 06:53:22;;;;;;;10.88;2.92;;;15.30;99.90;;;;;;5050357;28;20073;-78
2022/06/20 06:55:52;;;;;;;9.95;3.15;;;15.30;99.90;;;;;;5049483;28;20231;-82
2022/06/20 06:58:24;;;;;;;7.78;2.80;;;15.60;99.90;;;;;;5052592;28;20144;-81
2022/06/20 07:01:00;;;;;;;11.05;2.78;;;15.70;99.90;;;;;;5052988;28;20040;-80
2022/06/20 07:03:39;;;;;;;9.93;2.83;;;15.90;99.90;;;;;;5050011;28;20077;-80
2022/06/20 07:06:19;;;;;;;12.77;3.53;;;16.10;99.90;;;;;;5048910;28;20037;-80
2022/06/20 07:09:11;;;;;;;8.13;2.75;;;16.20;99.90;;;;;;5044487;28;20112;-81
2022/06/20 07:11:45;;;;;;;8.55;2.50;;;16.10;99.90;;;;;;5051004;28;20055;-82
2022/06/20 07:14:22;;;;;;;11.43;2.92;;;15.70;99.90;;;;;;5050725;28;20041;-81
2022/06/20 07:16:52;;;;;;;13.98;2.90;;;15.50;99.90;;;;;;5051902;28;20053;-81
2022/06/20 07:19:20;;;;;;;7.85;3.20;;;15.60;99.90;;;;;;5050468;28;20554;-81
2022/06/20 07:21:45;;;;;;;8.15;2.90;;;15.90;99.90;;;;;;5051932;28;20376;-82
2022/06/20 07:24:21;;;;;;;11.27;3.15;;;16.10;99.90;;;;;;5050116;28;20155;-79
2022/06/20 07:27:02;;;;;;;11.30;2.88;;;16.20;99.90;;;;;;5049538;28;20510;-82
2022/06/20 07:29:34;;;;;;;6.78;2.00;;;16.10;99.90;;;;;;5061722;28;20422;-81
2022/06/20 07:32:05;;;;;;;10.70;2.92;;;15.80;99.90;;;;;;5047874;28;20534;-79
2022/06/20 07:34:36;;;;;;;10.13;2.95;;;15.90;99.90;;;;;;5048082;28;20089;-80
2022/06/20 07:37:23;;;;;;;8.40;2.10;;;16.20;99.90;;;;;;5049471;28;20058;-79
2022/06/20 07:39:59;;;;;;;9.77;2.47;;;16.40;99.90;;;;;;5052093;28;20037;-82
2022/06/20 07:42:38;;;;;;;7.88;2.40;;;16.20;99.90;;;;;;5046226;28;20498;-83
2022/06/20 07:45:36;;;;;;;8.77;1.83;;;16.00;99.90;;;;;;5046781;28;20037;-80
2022/06/20 07:48:07;;;;;;;5.28;1.80;;;16.10;99.90;;;;;;5048483;28;20053;-80
2022/06/20 07:51:09;;;;;;;8.85;1.75;;;16.10;99.90;;;;;;5054792;28;20087;-84
2022/06/20 07:53:55;;;;;;;9.40;1.90;;;16.00;99.90;;;;;;5055592;28;20045;-84
2022/06/20 07:56:30;;;;;;;8.20;2.10;;;15.70;99.90;;;;;;5057144;28;20112;-81
2022/06/20 07:59:02;;;;;;;7.22;1.77;;;15.80;99.90;;;;;;5055661;28;20040;-84
2022/06/20 08:01:35;;;;;;;6.47;1.60;;;16.30;99.90;;;;;;5055774;28;20058;-84
2022/06/20 08:04:05;;;;;;;7.30;1.70;;;16.60;99.90;;;;;;5054097;28;20087;-80
2022/06/20 08:06:39;;;;;;;6.05;1.50;;;17.00;99.90;;;;;;5056423;28;20041;-81
2022/06/20 08:09:17;;;;;;;6.90;1.70;;;17.40;99.90;;;;;;5055726;28;20037;-80
2022/06/20 08:11:47;;;;;;;5.57;1.80;;;17.50;99.90;;;;;;5052678;28;20041;-82
2022/06/20 08:14:48;;;;;;;5.32;1.48;;;17.70;99.90;;;;;;5054550;28;20044;-82
2022/06/20 08:17:13;;;;;;;4.82;1.40;;;17.60;99.90;;;;;;5055680;28;20533;-82
2022/06/20 08:19:42;;;;;;;6.40;2.15;;;17.50;99.90;;;;;;5055896;28;20033;-79
2022/06/20 08:22:11;;;;;;;5.03;1.38;;;17.50;99.90;;;;;;5055967;28;20044;-81
2022/06/20 08:24:51;;;;;;;5.80;1.67;;;17.40;99.90;;;;;;5054341;28;20045;-83
2022/06/20 08:27:44;;;;;;;4.97;1.80;;;16.90;99.90;;;;;;5054278;28;20384;-79
2022/06/20 08:30:14;;;;;;;7.30;1.65;;;16.90;99.90;;;;;;5055655;28;20105;-83
2022/06/20 08:32:51;;;;;;;6.20;1.77;;;17.20;99.90;;;;;;5055036;28;20041;-81
2022/06/20 08:35:25;;;;;;;5.72;1.60;;;17.00;99.90;;;;;;5054045;28;20112;-83
2022/06/20 08:37:57;;;;;;;;;;;16.60;99.90;;;;;;5055359;28;20041;-81
2022/06/20 08:40:36;;;;;;;5.78;1.95;;;16.30;99.90;;;;;;5054162;28;20433;-83
2022/06/20 08:43:14;;;;;;;6.32;2.30;;;16.00;99.90;;;;;;5050899;28;20037;-83
2022/06/20 08:45:48;;;;;;;6.60;2.03;;;15.90;99.90;;;;;;5046397;28;20056;-83
2022/06/20 08:48:56;;;;;;;5.82;1.90;;;16.00;99.90;;;;;;5053011;28;20064;-80
2022/06/20 08:52:08;;;;;;;7.43;1.90;;;16.40;99.90;;;;;;5046857;28;20116;-80
2022/06/20 08:54:51;;;;;;;7.55;2.15;;;16.80;99.90;;;;;;5051826;28;20430;-80
2022/06/20 08:57:26;;;;;;;5.10;2.10;;;17.40;99.90;;;;;;5050240;28;20051;-80
2022/06/20 09:00:03;;;;;;;6.75;1.63;;;17.60;99.90;;;;;;5050547;28;20089;-82
2022/06/20 09:02:52;;;;;;;10.73;2.55;;;17.40;99.90;;;;;;5052212;28;20064;-79
2022/06/20 09:05:44;;;;;;;7.47;1.98;;;17.30;99.90;;;;;;5053475;28;20041;-80
2022/06/20 09:09:05;;;;;;;7.28;1.95;;;17.10;99.90;;;;;;5049390;28;20040;-82
2022/06/20 09:11:47;;;;;;;4.28;1.83;;;17.00;99.90;;;;;;4980108;28;20560;-81
2022/06/20 09:14:38;;;;;;;4.97;1.55;;;17.10;99.90;;;;;;5052136;28;20033;-80
2022/06/20 09:17:24;;;;;;;5.35;2.00;;;17.00;99.90;;;;;;5048592;28;20068;-78
2022/06/20 09:19:53;;;;;;;7.30;1.50;;;17.00;99.90;;;;;;5051253;28;20136;-79
2022/06/20 09:22:33;;;;;;;6.95;1.88;;;17.00;99.90;;;;;;5054017;28;20085;-82
2022/06/20 09:25:08;;;;;;;6.43;1.65;;;17.10;99.90;;;;;;5050669;28;20044;-80
2022/06/20 09:27:57;;;;;;;5.85;1.80;;;17.20;99.90;;;;;;5051617;28;20039;-84
2022/06/20 09:30:36;;;;;;;3.45;1.42;;;17.40;99.90;;;;;;5035394;28;20049;-77
2022/06/20 09:33:28;;;;;;;4.72;1.60;;;17.40;99.90;;;;;;5052147;28;20048;-79
2022/06/20 09:36:21;;;;;;;7.55;2.08;;;17.30;99.90;;;;;;5046251;28;20033;-80
2022/06/20 09:38:52;;;;;;;4.50;1.50;;;17.20;99.90;;;;;;5052055;28;20037;-79
2022/06/20 09:41:25;;;;;;;9.35;2.00;;;17.10;99.90;;;;;;5034269;28;20041;-77
2022/06/20 09:44:15;;;;;;;6.70;1.90;;;17.10;99.90;;;;;;5050723;28;20123;-79
2022/06/20 09:47:19;;;;;;;7.60;2.17;;;17.30;99.90;;;;;;5052698;28;20449;-80
2022/06/20 09:49:52;;;;;;;7.65;2.00;;;17.40;99.90;;;;;;5051801;28;20461;-82
2022/06/20 09:52:55;;;;;;;6.88;2.00;;;17.10;99.90;;;;;;5047266;28;20048;-81
2022/06/20 09:55:31;;;;;;;6.88;2.00;;;16.70;99.90;;;;;;5047056;28;20041;-81
2022/06/20 09:58:18;;;;;;;3.35;1.60;;;17.00;99.90;;;;;;5044524;28;20064;-80
2022/06/20 10:01:13;;;;;;;5.50;1.50;;;17.20;99.90;;;;;;5040426;28;20135;-82
2022/06/20 10:04:04;;;;;;;3.97;1.52;;;17.20;99.90;;;;;;5050633;28;20037;-80
2022/06/20 10:06:55;;;;;;;5.65;1.50;;;17.40;99.90;;;;;;5046745;28;20055;-80
2022/06/20 10:09:46;;;;;;;4.40;1.40;;;17.30;99.90;;;;;;5051424;28;20124;-81
2022/06/20 10:12:38;;;;;;;4.55;1.50;;;17.40;99.90;;;;;;5052131;28;20498;-80
2022/06/20 10:15:09;;;;;;;7.18;1.80;;;17.60;99.90;;;;;;5052114;28;20056;-82
2022/06/20 10:18:01;;;;;;;6.43;1.85;;;17.90;99.90;;;;;;5051418;28;20126;-80
2022/06/20 10:20:33;;;;;;;5.07;1.45;;;18.00;99.90;;;;;;5051987;28;20123;-81
2022/06/20 10:23:19;;;;;;;7.53;1.60;;;18.20;99.90;;;;;;5052289;28;20047;-79
2022/06/20 10:26:22;;;;;;;5.85;1.50;;;18.40;99.90;;;;;;5047622;28;20132;-81
2022/06/20 10:29:21;;;;;;;6.68;1.88;;;18.40;99.90;;;;;;5052451;28;20406;-80
2022/06/20 10:32:16;;;;;;;5.40;1.30;;;18.60;99.90;;;;;;5051876;28;20068;-81
2022/06/20 10:34:49;;;;;;;5.82;1.75;;;18.90;99.90;;;;;;5034658;28;20092;-81
2022/06/20 10:37:39;;;;;;;7.47;2.03;;;19.10;99.90;;;;;;5051449;28;20033;-82
2022/06/20 10:40:18;;;;;;;8.48;2.03;;;18.80;99.90;;;;;;5051973;28;20037;-79
2022/06/20 10:42:57;;;;;;;5.82;1.67;;;18.40;99.90;;;;;;5051050;28;20049;-79
2022/06/20 10:45:46;;;;;;;8.57;1.67;;;18.10;99.90;;;;;;5049646;28;20119;-82
2022/06/20 10:48:33;;;;;;;8.05;1.80;;;18.40;99.90;;;;;;5052161;28;20114;-82
2022/06/20 10:51:12;;;;;;;7.53;1.63;;;18.40;99.90;;;;;;5033743;28;20195;-81
2022/06/20 10:53:53;;;;;;;6.85;1.63;;;18.60;99.90;;;;;;5039566;28;20048;-81
2022/06/20 10:56:47;;;;;;;7.07;1.80;;;18.80;99.90;;;;;;5052403;28;20045;-82
2022/06/20 10:59:35;;;;;;;7.60;1.70;;;18.70;99.90;;;;;;5054140;28;20044;-79
2022/06/20 11:02:41;;;;;;;4.53;1.45;;;18.80;99.90;;;;;;5051800;28;20037;-83
2022/06/20 11:05:43;;;;;;;7.88;2.00;;;19.20;99.90;;;;;;5053094;28;20048;-80
2022/06/20 11:08:31;;;;;;;10.00;2.08;;;19.30;99.90;;;;;;5008126;28;20056;-81
2022/06/20 11:11:08;;;;;;;6.03;2.00;;;18.90;99.90;;;;;;5053949;28;20398;-83
2022/06/20 11:13:44;;;;;;;8.18;1.80;;;18.60;99.90;;;;;;5051235;28;20049;-82
2022/06/20 11:16:31;;;;;;;3.92;1.80;;;18.50;99.90;;;;;;5052508;28;20036;-81
2022/06/20 11:19:09;;;;;;;7.35;2.20;;;18.70;99.90;;;;;;5053334;28;20037;-84
2022/06/20 11:22:01;;;;;;;8.18;2.15;;;18.90;99.90;;;;;;5052771;28;20082;-83
2022/06/20 11:24:38;;;;;;;8.82;2.10;;;19.20;99.90;;;;;;5050713;28;20045;-81
2022/06/20 11:27:22;;;;;;;6.72;1.80;;;19.10;99.90;;;;;;5051481;28;20059;-81
2022/06/20 11:30:11;;;;;;;7.85;2.53;;;19.20;99.90;;;;;;5054532;28;20049;-82
2022/06/20 11:32:42;;;;;;;6.47;1.80;;;19.10;99.90;;;;;;5051094;28;20167;-80
2022/06/20 11:35:20;;;;;;;8.70;2.00;;;19.30;99.90;;;;;;5050730;28;20124;-81
2022/06/20 11:38:01;;;;;;;8.05;1.73;;;19.40;99.90;;;;;;5051852;28;20059;-80
2022/06/20 11:41:11;;;;;;;8.63;1.90;;;19.20;99.90;;;;;;5051620;28;20074;-82
2022/06/20 11:43:57;;;;;;;5.90;1.65;;;19.40;99.90;;;;;;5039727;28;20079;-82
2022/06/20 11:46:53;;;;;;;5.78;1.67;;;19.60;99.90;;;;;;5053240;28;20033;-82
2022/06/20 11:49:28;;;;;;;4.65;1.45;;;19.40;99.90;;;;;;5032780;28;20088;-81
2022/06/20 11:52:38;;;;;;;5.70;1.60;;;19.90;99.90;;;;;;5043655;28;20076;-80
2022/06/20 11:55:48;;;;;;;7.05;1.80;;;20.00;99.90;;;;;;5051454;28;20047;-81
2022/06/20 11:58:50;;;;;;;6.40;1.85;;;19.50;99.90;;;;;;5029962;28;20415;-82
2022/06/20 12:01:21;;;;;;;5.40;2.30;;;19.60;99.90;;;;;;5032424;28;20045;-81
2022/06/20 12:03:56;;;;;;;7.03;1.83;;;19.80;99.90;;;;;;5031161;28;20499;-81
2022/06/20 12:06:24;;;;;;;5.43;1.67;;;19.80;99.90;;;;;;5034753;28;20048;-80
2022/06/20 12:09:03;;;;;;;4.60;1.70;;;20.00;99.90;;;;;;5051088;28;20036;-78
2022/06/20 12:11:47;;;;;;;7.35;1.95;;;20.00;99.90;;;;;;5052100;28;20045;-83
2022/06/20 12:14:27;;;;;;;4.80;1.60;;;20.50;99.90;;;;;;5051486;28;20045;-81
2022/06/20 12:17:19;;;;;;;7.32;2.00;;;20.60;99.90;;;;;;5053280;28;20095;-80
2022/06/20 12:23:24;;;;;;;6.63;1.70;;;20.80;99.10;;;;;;5052101;28;20044;-81
2022/06/20 12:25:55;;;;;;;6.18;1.75;;;21.20;99.90;;;;;;5034936;28;20543;-80
2022/06/20 12:28:39;;;;;;;8.07;1.80;;;20.90;99.90;;;;;;5053948;28;20053;-80
2022/06/20 12:31:07;;;;;;;10.13;2.15;;;20.60;99.90;;;;;;5053331;28;20037;-79
2022/06/20 12:33:36;;;;;;;4.95;1.50;;;21.00;99.90;;;;;;5056653;28;20403;-82
2022/06/20 12:36:10;;;;;;;6.50;1.50;;;21.20;99.90;;;;;;5057568;28;20033;-81
2022/06/20 12:38:48;;;;;;;4.80;1.60;;;21.30;99.60;;;;;;5057104;28;20064;-81
2022/06/20 12:41:18;;;;;;;5.35;1.50;;;21.10;98.50;;;;;;5037802;28;20053;-81
2022/06/20 12:44:18;;;;;;;4.57;1.70;;;21.10;99.00;;;;;;5045359;28;20402;-80
2022/06/20 12:47:13;;;;;;;6.90;2.10;;;20.40;99.00;;;;;;5057871;28;20041;-78
2022/06/20 12:50:17;;;;;;;6.10;1.30;;;20.40;99.60;;;;;;5026231;28;20408;-81
2022/06/20 12:53:11;;;;;;;3.08;1.30;;;20.40;99.00;;;;;;5050935;28;20465;-79
2022/06/20 12:55:50;;;;;;;3.42;1.60;;;20.00;99.60;;;;;;5056653;28;20052;-83
2022/06/20 12:58:37;;;;;;;4.70;1.80;;;19.70;99.90;;;;;;5055558;28;20041;-80
2022/06/20 13:01:13;;;;;;;6.20;1.30;;;19.30;99.50;;;;;;5055409;28;20120;-80
2022/06/20 13:04:07;;;;;;;7.10;1.60;;;19.10;99.90;;;;;;5037946;28;20044;-79
2022/06/20 13:06:39;;;;;;;4.22;1.50;;;18.80;99.90;;;;;;5057564;28;20049;-81
2022/06/20 13:09:22;;;;;;;6.88;1.70;;;18.50;99.90;;;;;;5056288;28;20064;-78
2022/06/20 13:12:15;;;;;;;5.43;1.85;;;18.40;99.90;;;;;;5053267;28;20052;-83
2022/06/20 13:15:02;;;;;;;5.03;1.65;;;18.10;99.90;;;;;;5038116;28;20106;-81
2022/06/20 13:17:36;;;;;;;6.75;1.83;;;18.50;99.90;;;;;;5056141;28;20029;-79
2022/06/20 13:20:32;;;;;;;5.57;2.03;;;18.90;99.90;;;;;;5056397;28;20041;-80
2022/06/20 13:23:07;;;;;;;7.88;2.00;;;19.50;99.90;;;;;;5038408;28;20076;-79
2022/06/20 13:25:50;;;;;;;4.13;1.70;;;20.00;99.90;;;;;;5054058;28;20048;-79
2022/06/20 13:28:19;;;;;;;6.22;1.50;;;20.10;99.90;;;;;;5056708;28;20120;-81
2022/06/20 13:30:50;;;;;;;8.10;1.77;;;20.20;99.90;;;;;;5051499;28;20044;-78
2022/06/20 13:33:31;;;;;;;6.00;1.85;;;19.90;99.60;;;;;;5046371;28;20107;-81
2022/06/20 13:35:59;;;;;;;6.75;2.28;;;19.60;99.90;;;;;;5039261;28;20037;-78
2022/06/20 13:38:43;;;;;;;4.45;1.58;;;19.30;99.90;;;;;;5045340;28;20072;-79
2022/06/20 13:41:17;;;;;;;4.50;1.55;;;19.80;99.90;;;;;;5046861;28;20041;-79
2022/06/20 13:44:25;;;;;;;6.47;2.17;;;20.10;99.90;;;;;;5051042;28;20495;-79
2022/06/20 13:47:18;;;;;;;6.45;1.90;;;19.60;99.90;;;;;;5015757;28;20050;-79
2022/06/20 13:50:02;;;;;;;8.23;2.10;;;19.40;99.90;;;;;;5035051;28;20034;-77
2022/06/20 13:52:38;;;;;;;8.50;2.00;;;18.90;99.90;;;;;;5050028;28;20093;-81